Time;durP1;ratioP1;P1;durP2;ratioP2;P2;SDS_P1;SDS_P2;PMS_P1;PMS_P2;Temp;Humidity;BMP_temperature;BMP_pressure;BME280_temperature;BME280_humidity;BME280_pressure;Samples;Min_cycle;Max_cycle;Signal;HPM_P1;HPM_P2
2021/09/06 00:00:42;;;;;;;11.05;9.73;;;17.00;99.90;;;;;;5112957;28;20077;-37
2021/09/06 00:03:07;;;;;;;11.68;9.68;;;16.90;99.90;;;;;;5111855;28;20111;-33
2021/09/06 00:05:33;;;;;;;11.75;8.52;;;16.90;99.90;;;;;;5113677;28;20051;-39
2021/09/06 00:08:01;;;;;;;14.80;10.95;;;16.90;99.90;;;;;;5112655;28;20408;-38
2021/09/06 00:10:34;;;;;;;12.68;10.00;;;16.90;99.90;;;;;;5112775;28;20112;-38
2021/09/06 00:13:01;;;;;;;12.52;10.20;;;16.80;99.90;;;;;;5112542;28;20092;-37
2021/09/06 00:15:27;;;;;;;12.20;10.23;;;16.80;99.90;;;;;;5105946;28;20434;-38
2021/09/06 00:17:53;;;;;;;12.65;9.82;;;16.80;99.90;;;;;;5071268;28;20095;-38
2021/09/06 00:20:22;;;;;;;12.45;9.60;;;16.80;99.90;;;;;;5101113;28;20112;-38
2021/09/06 00:22:47;;;;;;;13.43;10.30;;;16.80;99.90;;;;;;5112511;28;20046;-37
2021/09/06 00:25:13;;;;;;;14.68;10.35;;;16.80;99.90;;;;;;5112537;28;20042;-39
2021/09/06 00:27:39;;;;;;;14.13;10.65;;;16.70;99.90;;;;;;5112367;28;20466;-37
2021/09/06 00:30:05;;;;;;;14.57;11.10;;;16.60;99.90;;;;;;5112403;28;20019;-36
2021/09/06 00:32:34;;;;;;;13.85;10.65;;;16.60;99.90;;;;;;5112403;28;20027;-36
2021/09/06 00:34:59;;;;;;;11.20;9.90;;;16.60;99.90;;;;;;5111727;28;20024;-35
2021/09/06 00:37:25;;;;;;;14.85;10.85;;;16.60;99.90;;;;;;5112629;28;20039;-35
2021/09/06 00:39:50;;;;;;;13.35;10.52;;;16.50;99.90;;;;;;5111615;28;20027;-37
2021/09/06 00:42:16;;;;;;;12.93;10.35;;;16.50;99.90;;;;;;5112476;28;20024;-38
2021/09/06 00:44:44;;;;;;;13.25;9.95;;;16.50;99.90;;;;;;5111882;28;20042;-35
2021/09/06 00:47:10;;;;;;;13.50;10.60;;;16.50;99.90;;;;;;5105738;28;20016;-33
2021/09/06 00:49:35;;;;;;;11.85;9.70;;;16.40;99.90;;;;;;5112522;28;20028;-35
2021/09/06 00:52:01;;;;;;;14.07;9.90;;;16.40;99.90;;;;;;5111252;28;20007;-36
2021/09/06 00:54:27;;;;;;;15.52;10.55;;;16.40;99.90;;;;;;5112131;28;20043;-38
2021/09/06 00:56:54;;;;;;;15.32;10.15;;;16.30;99.90;;;;;;5111297;28;20028;-38
2021/09/06 00:59:19;;;;;;;12.95;10.90;;;16.30;99.90;;;;;;5111787;28;20052;-35
2021/09/06 01:01:45;;;;;;;12.50;9.80;;;16.30;99.90;;;;;;5111708;28;20058;-37
2021/09/06 01:04:10;;;;;;;14.80;11.25;;;16.30;99.90;;;;;;5112231;28;20060;-37
2021/09/06 01:06:36;;;;;;;14.85;11.05;;;16.20;99.90;;;;;;5111083;28;20514;-38
2021/09/06 01:09:02;;;;;;;13.55;10.70;;;16.20;99.90;;;;;;5111177;28;20115;-33
2021/09/06 01:11:27;;;;;;;13.40;11.00;;;16.10;99.90;;;;;;5111794;28;20040;-36
2021/09/06 01:13:53;;;;;;;15.35;11.27;;;16.10;99.90;;;;;;5110663;28;20044;-38
2021/09/06 01:16:22;;;;;;;14.15;10.88;;;16.10;99.90;;;;;;5111847;28;20375;-34
2021/09/06 01:18:47;;;;;;;15.25;11.10;;;16.10;99.90;;;;;;5111286;28;20011;-37
2021/09/06 01:21:14;;;;;;;14.98;11.20;;;16.10;99.90;;;;;;5111221;28;20109;-36
2021/09/06 01:23:39;;;;;;;16.15;11.88;;;16.00;99.90;;;;;;5111739;28;20039;-38
2021/09/06 01:26:05;;;;;;;14.00;11.38;;;16.00;99.90;;;;;;5111062;28;20053;-38
2021/09/06 01:28:30;;;;;;;14.77;11.32;;;16.00;99.90;;;;;;5110862;28;20032;-37
2021/09/06 01:30:56;;;;;;;15.13;11.20;;;15.90;99.90;;;;;;5111097;28;20049;-38
2021/09/06 01:33:21;;;;;;;16.25;12.13;;;15.90;99.90;;;;;;5111450;28;20030;-37
2021/09/06 01:35:47;;;;;;;17.38;11.50;;;15.90;99.90;;;;;;5110803;28;20032;-37
2021/09/06 01:38:12;;;;;;;13.88;11.40;;;15.90;99.90;;;;;;5111439;28;20027;-37
2021/09/06 01:40:38;;;;;;;15.38;11.60;;;15.90;99.90;;;;;;5111043;28;20020;-38
2021/09/06 01:43:04;;;;;;;14.40;11.40;;;15.90;99.90;;;;;;5110247;28;20024;-37
2021/09/06 01:45:29;;;;;;;17.17;12.27;;;15.90;99.90;;;;;;5111340;28;20023;-35
2021/09/06 01:47:55;;;;;;;14.80;11.80;;;15.90;99.90;;;;;;5110724;28;20463;-38
2021/09/06 01:50:20;;;;;;;15.80;12.15;;;15.80;99.90;;;;;;5110939;28;20031;-38
2021/09/06 01:52:46;;;;;;;18.38;12.98;;;15.80;99.90;;;;;;5110513;28;20521;-41
2021/09/06 01:55:11;;;;;;;16.77;12.43;;;15.80;99.90;;;;;;5111286;28;20051;-37
2021/09/06 01:57:39;;;;;;;16.83;12.60;;;15.80;99.90;;;;;;5110111;28;20470;-38
2021/09/06 02:00:05;;;;;;;13.20;10.52;;;15.90;99.90;;;;;;5111362;28;20058;-34
2021/09/06 02:02:40;;;;;;;16.63;11.73;;;15.90;99.90;;;;;;5111286;28;20055;-38
2021/09/06 02:05:06;;;;;;;17.38;12.82;;;15.90;99.90;;;;;;5110587;28;20023;-37
2021/09/06 02:07:32;;;;;;;16.40;11.85;;;15.80;99.90;;;;;;5111228;28;20032;-35
2021/09/06 02:09:57;;;;;;;14.15;11.70;;;15.70;99.90;;;;;;5110354;28;20096;-37
2021/09/06 02:12:23;;;;;;;15.15;11.35;;;15.70;99.90;;;;;;5110990;28;20390;-35
2021/09/06 02:14:48;;;;;;;17.50;12.20;;;15.70;99.90;;;;;;5110626;28;20062;-39
2021/09/06 02:17:14;;;;;;;14.45;11.25;;;15.70;99.90;;;;;;5110125;28;20016;-38
2021/09/06 02:19:39;;;;;;;20.67;12.38;;;15.60;99.90;;;;;;5110372;28;20111;-39
2021/09/06 02:22:05;;;;;;;16.40;12.90;;;15.60;99.90;;;;;;5110681;28;20019;-39
2021/09/06 02:24:31;;;;;;;15.75;11.88;;;15.60;99.90;;;;;;5110379;28;20023;-37
2021/09/06 02:26:56;;;;;;;15.43;11.38;;;15.50;99.90;;;;;;5109558;28;20020;-36
2021/09/06 02:29:22;;;;;;;15.52;12.27;;;15.50;99.90;;;;;;5110843;28;20042;-37
2021/09/06 02:31:47;;;;;;;15.70;11.85;;;15.50;99.90;;;;;;5109553;28;20118;-38
2021/09/06 02:34:16;;;;;;;15.50;12.32;;;15.50;99.90;;;;;;5110354;28;20034;-39
2021/09/06 02:36:44;;;;;;;16.92;12.10;;;15.50;99.90;;;;;;5110291;28;20023;-36
2021/09/06 02:39:09;;;;;;;15.05;11.23;;;15.40;99.90;;;;;;5110178;28;20012;-38
2021/09/06 02:41:35;;;;;;;16.08;11.38;;;15.40;99.90;;;;;;5109905;28;20028;-37
2021/09/06 02:44:00;;;;;;;15.50;12.35;;;15.40;99.90;;;;;;5109866;28;20468;-38
2021/09/06 02:46:26;;;;;;;15.75;12.43;;;15.40;99.90;;;;;;5110108;28;20015;-38
2021/09/06 02:48:51;;;;;;;16.48;12.35;;;15.30;99.90;;;;;;5110089;28;20024;-38
2021/09/06 02:51:17;;;;;;;19.45;12.48;;;15.30;99.90;;;;;;5110577;28;20024;-36
2021/09/06 02:53:45;;;;;;;16.25;11.63;;;15.30;99.90;;;;;;5109775;28;20020;-39
2021/09/06 02:56:11;;;;;;;17.27;12.70;;;15.30;99.90;;;;;;5109567;28;20069;-39
2021/09/06 02:58:36;;;;;;;17.42;12.40;;;15.30;99.90;;;;;;5110392;28;20016;-35
2021/09/06 03:01:02;;;;;;;19.10;13.27;;;15.20;99.90;;;;;;5109347;28;20165;-38
2021/09/06 03:03:30;;;;;;;15.52;12.60;;;15.20;99.90;;;;;;5110539;28;20026;-38
2021/09/06 03:05:56;;;;;;;16.27;12.57;;;15.20;99.90;;;;;;5109060;28;20042;-34
2021/09/06 03:08:22;;;;;;;16.23;12.40;;;15.20;99.90;;;;;;5110344;28;20474;-37
2021/09/06 03:10:47;;;;;;;17.17;12.52;;;15.10;99.90;;;;;;5109593;28;20035;-38
2021/09/06 03:13:16;;;;;;;15.80;12.13;;;15.10;99.90;;;;;;5109766;28;20056;-37
2021/09/06 03:15:41;;;;;;;14.80;11.77;;;15.10;99.90;;;;;;5109018;28;20517;-36
2021/09/06 03:18:07;;;;;;;16.98;11.95;;;15.20;99.90;;;;;;5109882;28;20102;-35
2021/09/06 03:20:32;;;;;;;14.75;11.63;;;15.10;99.90;;;;;;5110048;28;20028;-38
2021/09/06 03:22:58;;;;;;;16.48;12.52;;;15.10;99.90;;;;;;5109586;28;20020;-39
2021/09/06 03:25:23;;;;;;;14.32;11.50;;;15.10;99.90;;;;;;5109905;28;20032;-38
2021/09/06 03:27:49;;;;;;;14.63;11.48;;;15.10;99.90;;;;;;5108998;28;20073;-37
2021/09/06 03:30:15;;;;;;;16.00;12.40;;;15.00;99.90;;;;;;5110216;28;20030;-36
2021/09/06 03:32:40;;;;;;;15.40;12.25;;;15.10;99.90;;;;;;5114115;28;20069;-37
2021/09/06 03:35:06;;;;;;;17.60;12.50;;;15.10;99.90;;;;;;5113945;28;20466;-37
2021/09/06 03:37:32;;;;;;;16.48;12.25;;;15.00;99.90;;;;;;5113870;28;20044;-38
2021/09/06 03:39:57;;;;;;;16.05;12.85;;;15.10;99.90;;;;;;5113603;28;20489;-36
2021/09/06 03:42:29;;;;;;;16.63;13.25;;;15.00;99.90;;;;;;5113178;28;20023;-34
2021/09/06 03:44:54;;;;;;;14.93;12.50;;;15.00;99.90;;;;;;5113634;28;20390;-38
2021/09/06 03:47:23;;;;;;;16.08;12.88;;;15.00;99.90;;;;;;5113695;28;20518;-38
2021/09/06 03:49:54;;;;;;;17.85;12.07;;;15.00;99.90;;;;;;5113211;28;20117;-37
2021/09/06 03:52:20;;;;;;;19.65;12.90;;;15.00;99.90;;;;;;5113777;28;20034;-36
2021/09/06 03:54:45;;;;;;;15.15;12.23;;;14.90;99.90;;;;;;5112991;28;20483;-38
2021/09/06 03:57:11;;;;;;;16.17;12.27;;;14.90;99.90;;;;;;5113219;28;20097;-36
2021/09/06 03:59:36;;;;;;;15.68;12.45;;;14.90;99.90;;;;;;5113510;28;20145;-38
2021/09/06 04:02:08;;;;;;;16.65;11.85;;;14.90;99.90;;;;;;5112632;28;20105;-36
2021/09/06 04:04:34;;;;;;;15.68;11.70;;;14.90;99.90;;;;;;5112874;28;20023;-37
2021/09/06 04:06:59;;;;;;;18.00;12.95;;;14.80;99.90;;;;;;5112527;28;20016;-37
2021/09/06 04:09:25;;;;;;;13.85;11.90;;;14.90;99.90;;;;;;5113582;28;20454;-35
2021/09/06 04:11:50;;;;;;;15.55;12.05;;;14.80;99.90;;;;;;5112776;28;20515;-37
2021/09/06 04:14:16;;;;;;;16.35;11.68;;;14.80;99.90;;;;;;5113394;28;20044;-32
2021/09/06 04:16:43;;;;;;;16.77;12.57;;;14.70;99.90;;;;;;5097688;28;20050;-32
2021/09/06 04:19:09;;;;;;;15.63;12.50;;;14.80;99.90;;;;;;5112594;28;20012;-38
2021/09/06 04:21:34;;;;;;;16.90;11.18;;;14.70;99.90;;;;;;5113374;28;20028;-40
2021/09/06 04:24:00;;;;;;;15.77;11.35;;;14.70;99.90;;;;;;5112095;28;20019;-36
2021/09/06 04:26:28;;;;;;;16.17;11.98;;;14.70;99.90;;;;;;5113764;28;20089;-36
2021/09/06 04:28:54;;;;;;;15.27;12.77;;;14.70;99.90;;;;;;5112429;28;20103;-40
2021/09/06 04:31:19;;;;;;;16.02;12.05;;;14.70;99.90;;;;;;5112420;28;20135;-40
2021/09/06 04:33:47;;;;;;;18.23;11.93;;;14.60;99.90;;;;;;5112995;28;20393;-39
2021/09/06 04:36:13;;;;;;;14.52;10.93;;;14.60;99.90;;;;;;5112882;28;20569;-36
2021/09/06 04:38:38;;;;;;;15.70;11.32;;;14.60;99.90;;;;;;5111984;28;20102;-40
2021/09/06 04:41:07;;;;;;;14.48;11.55;;;14.50;99.90;;;;;;5113214;28;20023;-40
2021/09/06 04:43:32;;;;;;;16.33;12.57;;;14.40;99.90;;;;;;5112472;28;20043;-36
2021/09/06 04:46:00;;;;;;;16.20;11.98;;;14.40;99.90;;;;;;5111421;28;20450;-37
2021/09/06 04:48:26;;;;;;;15.30;11.55;;;14.40;99.90;;;;;;5112356;28;20054;-37
2021/09/06 04:50:54;;;;;;;15.43;11.02;;;14.40;99.90;;;;;;5112178;28;20055;-36
2021/09/06 04:53:19;;;;;;;14.35;11.77;;;14.40;99.90;;;;;;5112291;28;20020;-37
2021/09/06 04:55:45;;;;;;;16.45;12.40;;;14.40;99.90;;;;;;5112423;28;20460;-33
2021/09/06 04:58:10;;;;;;;17.70;12.30;;;14.30;99.90;;;;;;5112715;28;20077;-36
2021/09/06 05:00:36;;;;;;;18.35;12.93;;;14.30;99.90;;;;;;5111887;28;20055;-35
2021/09/06 05:03:04;;;;;;;17.17;12.88;;;14.30;99.90;;;;;;5112488;28;20032;-36
2021/09/06 05:05:33;;;;;;;16.10;12.65;;;14.40;99.90;;;;;;5111878;28;20016;-39
2021/09/06 05:07:58;;;;;;;16.67;12.85;;;14.30;99.90;;;;;;5111851;28;20065;-36
2021/09/06 05:10:24;;;;;;;17.48;13.20;;;14.30;99.90;;;;;;5112125;28;20402;-39
2021/09/06 05:12:49;;;;;;;17.25;12.50;;;14.30;99.90;;;;;;5111316;28;20089;-35
2021/09/06 05:15:15;;;;;;;16.48;12.77;;;14.30;99.90;;;;;;5111570;28;20031;-34
2021/09/06 05:17:40;;;;;;;17.30;12.50;;;14.30;99.90;;;;;;5112096;28;20122;-38
2021/09/06 05:20:06;;;;;;;17.65;12.95;;;14.20;99.90;;;;;;5111113;28;20495;-39
2021/09/06 05:22:32;;;;;;;17.30;12.57;;;14.20;99.90;;;;;;5112204;28;20044;-39
2021/09/06 05:24:57;;;;;;;14.30;11.93;;;14.20;99.90;;;;;;5110560;28;20046;-34
2021/09/06 05:27:23;;;;;;;15.98;12.68;;;14.20;99.90;;;;;;5111704;28;20385;-33
2021/09/06 05:29:48;;;;;;;16.25;12.25;;;14.20;99.90;;;;;;5111154;28;20019;-35
2021/09/06 05:32:14;;;;;;;15.77;12.05;;;14.20;99.90;;;;;;5111451;28;20055;-34
2021/09/06 05:34:45;;;;;;;16.45;12.52;;;14.20;99.90;;;;;;5111181;28;20023;-38
2021/09/06 05:37:13;;;;;;;18.73;13.73;;;14.30;99.90;;;;;;5111698;28;20022;-37
2021/09/06 05:39:39;;;;;;;17.15;12.30;;;14.30;99.90;;;;;;5111806;28;20028;-36
2021/09/06 05:42:04;;;;;;;16.98;13.13;;;14.30;99.90;;;;;;5110872;28;20023;-32
2021/09/06 05:44:30;;;;;;;17.55;13.02;;;14.40;99.90;;;;;;5111705;28;20042;-33
2021/09/06 05:47:02;;;;;;;17.40;12.60;;;14.30;99.90;;;;;;5110534;28;20024;-36
2021/09/06 05:49:27;;;;;;;17.13;12.30;;;14.40;99.90;;;;;;5111490;28;20429;-34
2021/09/06 05:51:53;;;;;;;21.10;12.27;;;14.40;99.90;;;;;;5110722;28;20301;-39
2021/09/06 05:54:19;;;;;;;17.33;12.63;;;14.40;99.90;;;;;;5111065;28;20039;-42
2021/09/06 05:56:44;;;;;;;17.13;12.80;;;14.50;99.90;;;;;;5109675;28;20471;-40
2021/09/06 05:59:10;;;;;;;15.35;11.82;;;14.50;99.90;;;;;;5110565;28;20055;-42
2021/09/06 06:01:36;;;;;;;17.80;12.90;;;14.50;99.90;;;;;;5111170;28;20028;-39
2021/09/06 06:04:01;;;;;;;17.17;12.88;;;14.60;99.90;;;;;;5110750;28;20020;-39
2021/09/06 06:06:28;;;;;;;16.73;12.85;;;14.60;99.90;;;;;;5111556;28;20477;-42
2021/09/06 06:08:54;;;;;;;17.75;13.60;;;14.70;99.90;;;;;;5108759;28;20023;-42
2021/09/06 06:11:19;;;;;;;17.08;13.88;;;14.70;99.90;;;;;;5110739;28;20043;-41
2021/09/06 06:13:45;;;;;;;22.48;15.77;;;14.70;99.90;;;;;;5111389;28;20106;-41
2021/09/06 06:16:11;;;;;;;19.02;13.57;;;14.80;99.90;;;;;;5110336;28;20027;-41
2021/09/06 06:18:36;;;;;;;17.08;13.15;;;14.80;99.90;;;;;;5110101;28;20080;-41
2021/09/06 06:21:02;;;;;;;18.17;13.73;;;14.90;99.90;;;;;;5109826;28;20023;-43
2021/09/06 06:23:27;;;;;;;21.30;14.45;;;14.90;99.90;;;;;;5110079;28;20053;-37
2021/09/06 06:25:53;;;;;;;17.80;12.77;;;15.00;99.90;;;;;;5109753;28;20599;-40
2021/09/06 06:28:19;;;;;;;20.15;12.80;;;15.00;99.90;;;;;;5110408;28;20043;-41
2021/09/06 06:30:45;;;;;;;16.45;12.98;;;15.10;99.90;;;;;;5110181;28;20440;-42
2021/09/06 06:33:10;;;;;;;16.77;12.38;;;15.10;99.90;;;;;;5110250;28;20016;-42
2021/09/06 06:35:37;;;;;;;17.83;11.90;;;15.10;99.90;;;;;;5111136;28;20024;-42
2021/09/06 06:38:03;;;;;;;17.02;12.02;;;15.20;99.90;;;;;;5109493;28;20080;-43
2021/09/06 06:40:29;;;;;;;14.40;11.35;;;15.20;99.90;;;;;;5110749;28;20382;-43
2021/09/06 06:42:54;;;;;;;14.23;11.88;;;15.20;99.90;;;;;;5110071;28;20031;-43
2021/09/06 06:45:20;;;;;;;15.88;12.07;;;15.30;99.90;;;;;;5110052;28;20028;-43
2021/09/06 06:47:46;;;;;;;15.88;11.63;;;15.30;99.90;;;;;;5110100;28;20051;-43
2021/09/06 06:50:13;;;;;;;14.38;11.65;;;15.40;99.90;;;;;;5110968;28;20015;-39
2021/09/06 06:52:39;;;;;;;14.70;11.48;;;15.40;99.90;;;;;;5109659;28;20030;-39
2021/09/06 06:55:05;;;;;;;14.98;11.07;;;15.50;99.90;;;;;;5110583;28;20027;-42
2021/09/06 06:57:31;;;;;;;14.52;12.55;;;15.50;99.90;;;;;;5108920;28;20510;-41
2021/09/06 06:59:56;;;;;;;16.48;12.27;;;15.50;99.90;;;;;;5108585;28;20023;-42
2021/09/06 07:02:22;;;;;;;18.77;12.27;;;15.60;99.90;;;;;;5109666;28;20028;-38
2021/09/06 07:04:48;;;;;;;16.27;12.40;;;15.60;99.90;;;;;;5109456;28;20043;-39
2021/09/06 07:07:13;;;;;;;17.15;11.88;;;15.60;99.90;;;;;;5113920;28;20120;-42
2021/09/06 07:09:39;;;;;;;16.73;12.60;;;15.70;99.90;;;;;;5114139;28;20015;-36
2021/09/06 07:12:05;;;;;;;19.88;13.02;;;15.70;99.90;;;;;;5113867;28;20610;-36
2021/09/06 07:14:30;;;;;;;18.42;13.10;;;15.80;99.90;;;;;;5114078;28;20475;-39
2021/09/06 07:16:56;;;;;;;17.33;13.10;;;15.90;99.90;;;;;;5114481;28;20419;-39
2021/09/06 07:19:21;;;;;;;18.80;14.02;;;15.90;99.90;;;;;;5113427;28;20024;-37
2021/09/06 07:21:47;;;;;;;19.23;13.65;;;16.00;99.90;;;;;;5113553;28;20027;-38
2021/09/06 07:24:15;;;;;;;17.77;13.02;;;16.00;99.90;;;;;;5114677;28;20012;-36
2021/09/06 07:26:40;;;;;;;19.02;13.93;;;16.10;99.90;;;;;;5113459;28;20046;-35
2021/09/06 07:29:06;;;;;;;18.02;13.45;;;16.20;99.90;;;;;;5113639;28;20514;-38
2021/09/06 07:31:31;;;;;;;16.10;12.32;;;16.20;99.90;;;;;;5114377;28;20046;-36
2021/09/06 07:33:57;;;;;;;17.15;12.40;;;16.30;99.90;;;;;;5112360;28;20024;-36
2021/09/06 07:36:23;;;;;;;19.85;14.00;;;16.30;99.90;;;;;;5113096;28;20092;-38
2021/09/06 07:38:48;;;;;;;16.98;13.20;;;16.40;99.90;;;;;;5113068;28;20023;-39
2021/09/06 07:41:14;;;;;;;18.50;13.30;;;16.50;99.90;;;;;;5113473;28;20023;-39
2021/09/06 07:43:41;;;;;;;20.88;14.38;;;16.60;99.90;;;;;;5113387;28;20023;-38
2021/09/06 07:46:06;;;;;;;19.95;13.90;;;16.60;99.90;;;;;;5106277;28;20023;-36
2021/09/06 07:48:47;;;;;;;19.27;13.98;;;16.80;99.90;;;;;;5113450;28;20176;-39
2021/09/06 07:51:16;;;;;;;16.75;12.57;;;16.90;99.90;;;;;;5112758;28;20487;-34
2021/09/06 07:53:41;;;;;;;20.52;14.13;;;17.00;99.90;;;;;;5113577;28;20393;-36
2021/09/06 07:56:07;;;;;;;19.15;13.07;;;17.10;99.90;;;;;;5112544;28;20538;-40
2021/09/06 07:58:32;;;;;;;16.98;13.60;;;17.10;99.90;;;;;;5113192;28;20563;-40
2021/09/06 08:00:58;;;;;;;16.73;13.05;;;17.20;99.90;;;;;;5112698;28;20482;-36
2021/09/06 08:03:23;;;;;;;16.85;13.52;;;17.30;99.90;;;;;;5113247;28;20103;-36
2021/09/06 08:05:49;;;;;;;19.35;13.20;;;17.30;99.90;;;;;;5112862;28;20112;-40
2021/09/06 08:08:15;;;;;;;16.25;13.10;;;17.40;99.90;;;;;;5113307;28;20106;-40
2021/09/06 08:10:40;;;;;;;20.02;13.27;;;17.50;99.90;;;;;;5112261;28;20080;-40
2021/09/06 08:13:09;;;;;;;18.85;13.52;;;17.50;99.90;;;;;;5111284;28;20078;-37
2021/09/06 08:15:35;;;;;;;18.50;12.50;;;17.60;99.90;;;;;;5109251;28;20498;-40
2021/09/06 08:18:00;;;;;;;17.52;12.88;;;17.70;99.90;;;;;;5112528;28;20015;-40
2021/09/06 08:20:26;;;;;;;17.08;12.65;;;17.70;99.90;;;;;;5112531;28;20407;-40
2021/09/06 08:22:52;;;;;;;18.90;13.23;;;17.70;99.90;;;;;;5111881;28;20023;-37
2021/09/06 08:25:17;;;;;;;12.18;9.63;;;17.80;99.90;;;;;;5113068;28;20404;-38
2021/09/06 08:27:43;;;;;;;17.50;12.45;;;17.90;99.90;;;;;;5112851;28;20020;-39
2021/09/06 08:30:11;;;;;;;16.98;12.75;;;18.00;99.90;;;;;;5112316;28;20020;-41
2021/09/06 08:32:38;;;;;;;21.83;13.57;;;18.10;99.90;;;;;;5112268;28;20099;-43
2021/09/06 08:35:05;;;;;;;13.98;11.43;;;18.10;99.90;;;;;;5112527;28;20053;-40
2021/09/06 08:37:31;;;;;;;15.70;12.27;;;18.20;99.90;;;;;;5112619;28;20019;-41
2021/09/06 08:39:57;;;;;;;14.27;11.18;;;18.20;99.90;;;;;;5112102;28;20039;-40
2021/09/06 08:42:22;;;;;;;15.90;11.95;;;18.30;99.90;;;;;;5112563;28;20020;-43
2021/09/06 08:44:48;;;;;;;15.50;12.30;;;18.40;99.90;;;;;;5112401;28;20031;-40
2021/09/06 08:47:14;;;;;;;17.65;13.00;;;18.40;99.90;;;;;;5112292;28;20467;-41
2021/09/06 08:49:40;;;;;;;18.85;13.32;;;18.40;99.90;;;;;;5112623;28;20023;-43
2021/09/06 08:52:10;;;;;;;14.40;12.25;;;18.50;99.90;;;;;;5112039;28;20069;-43
2021/09/06 08:54:35;;;;;;;16.35;12.23;;;18.60;99.90;;;;;;5112484;28;20141;-41
2021/09/06 08:57:01;;;;;;;17.38;13.20;;;18.70;99.90;;;;;;5111976;28;20119;-38
2021/09/06 08:59:26;;;;;;;16.58;12.73;;;18.80;99.90;;;;;;5111920;28;20520;-40
2021/09/06 09:01:52;;;;;;;13.68;10.85;;;18.80;99.90;;;;;;5111508;28;20026;-43
2021/09/06 09:04:20;;;;;;;13.50;11.23;;;18.90;99.90;;;;;;5112031;28;20474;-40
2021/09/06 09:06:54;;;;;;;16.55;12.68;;;18.90;99.90;;;;;;5110914;28;20144;-42
2021/09/06 09:09:29;;;;;;;16.55;11.65;;;19.00;99.90;;;;;;5089822;28;20039;-40
2021/09/06 09:12:12;;;;;;;16.40;12.05;;;19.10;99.90;;;;;;5110410;28;20036;-42
2021/09/06 09:14:39;;;;;;;;;;;19.10;99.90;;;;;;5092303;28;20027;-38
2021/09/06 09:17:06;;;;;;;16.33;11.50;;;19.20;99.90;;;;;;5111949;28;19939;-42
2021/09/06 09:19:31;;;;;;;14.88;10.80;;;19.20;99.90;;;;;;5111141;28;20476;-41
2021/09/06 09:22:03;;;;;;;14.02;10.95;;;19.20;99.90;;;;;;5111714;28;20095;-41
2021/09/06 09:24:29;;;;;;;13.27;9.35;;;19.20;99.90;;;;;;5105637;28;20108;-43
2021/09/06 09:26:57;;;;;;;15.90;11.02;;;19.20;99.90;;;;;;5110725;28;20098;-41
2021/09/06 09:29:26;;;;;;;14.50;10.23;;;19.20;99.90;;;;;;5110874;28;20020;-42
2021/09/06 09:31:53;;;;;;;13.30;10.68;;;19.20;99.90;;;;;;5111023;28;20391;-42
2021/09/06 09:34:19;;;;;;;14.60;11.02;;;19.30;99.90;;;;;;5110976;28;20027;-42
2021/09/06 09:36:45;;;;;;;14.43;10.55;;;19.30;99.90;;;;;;5111476;28;20019;-43
2021/09/06 09:39:19;;;;;;;14.07;11.13;;;19.30;99.90;;;;;;5111280;28;20076;-42
2021/09/06 09:41:47;;;;;;;12.73;10.63;;;19.30;99.90;;;;;;5070095;28;20052;-42
2021/09/06 09:44:20;;;;;;;12.00;10.40;;;19.40;99.90;;;;;;5100552;28;20068;-42
2021/09/06 09:46:55;;;;;;;;;;;19.40;99.90;;;;;;5111854;28;20030;-43
2021/09/06 09:49:22;;;;;;;14.75;10.27;;;19.50;99.90;;;;;;5109480;28;20259;-43
2021/09/06 09:51:48;;;;;;;13.80;10.63;;;19.50;99.90;;;;;;5110945;28;20102;-43
2021/09/06 09:54:14;;;;;;;16.67;11.15;;;19.50;99.90;;;;;;5110165;28;20506;-43
2021/09/06 09:56:43;;;;;;;16.73;11.68;;;19.60;99.90;;;;;;5111296;28;20028;-40
2021/09/06 09:59:19;;;;;;;14.98;12.35;;;19.60;99.90;;;;;;5110531;28;20020;-42
2021/09/06 10:02:00;;;;;;;15.30;11.93;;;19.70;99.90;;;;;;5110610;28;20020;-40
2021/09/06 10:04:30;;;;;;;12.73;10.20;;;19.80;99.90;;;;;;5110655;28;20031;-39
2021/09/06 10:06:58;;;;;;;12.70;9.90;;;19.80;99.90;;;;;;5103521;28;20016;-40
2021/09/06 10:09:24;;;;;;;11.60;10.10;;;19.80;99.90;;;;;;5099365;28;20045;-42
2021/09/06 10:11:50;;;;;;;9.60;8.45;;;19.80;99.90;;;;;;5110385;28;20059;-38
2021/09/06 10:14:26;;;;;;;11.15;8.95;;;19.90;99.90;;;;;;5110698;28;20455;-43
2021/09/06 10:17:07;;;;;;;10.65;9.55;;;19.90;99.90;;;;;;5109623;28;20059;-43
2021/09/06 10:19:41;;;;;;;13.75;9.68;;;20.00;99.90;;;;;;5110166;28;20020;-43
2021/09/06 10:22:18;;;;;;;14.27;10.18;;;20.10;99.90;;;;;;5110044;28;20031;-43
2021/09/06 10:24:59;;;;;;;9.95;8.65;;;20.10;99.90;;;;;;5110699;28;20023;-42
2021/09/06 10:27:25;;;;;;;10.93;8.48;;;20.20;99.90;;;;;;5111147;28;20023;-42
2021/09/06 10:30:01;;;;;;;9.88;8.10;;;20.20;99.90;;;;;;5109467;28;20098;-40
2021/09/06 10:32:43;;;;;;;10.75;9.02;;;20.30;99.90;;;;;;5111222;28;20019;-42
2021/09/06 10:35:12;;;;;;;9.43;7.78;;;20.40;99.90;;;;;;5110598;28;20036;-42
2021/09/06 10:37:39;;;;;;;10.02;8.20;;;20.40;99.90;;;;;;5109213;28;20022;-42
2021/09/06 10:40:08;;;;;;;8.40;7.47;;;20.60;99.90;;;;;;5110027;28;20031;-41
2021/09/06 10:42:36;;;;;;;7.80;6.97;;;20.60;99.90;;;;;;5110519;28;20551;-42
2021/09/06 10:45:04;;;;;;;9.00;7.45;;;20.70;99.90;;;;;;5110002;28;20037;-39
2021/09/06 10:47:37;;;;;;;8.82;7.00;;;20.80;99.90;;;;;;5110814;28;20012;-39
2021/09/06 10:50:18;;;;;;;9.15;7.80;;;20.80;99.90;;;;;;5109799;28;20023;-45
2021/09/06 10:52:45;;;;;;;10.82;7.32;;;20.90;99.30;;;;;;5110257;28;20034;-41
2021/09/06 10:55:12;;;;;;;7.65;6.45;;;21.00;99.30;;;;;;5110081;28;20034;-38
2021/09/06 10:57:39;;;;;;;8.32;7.00;;;21.00;99.10;;;;;;5109627;28;20024;-42
2021/09/06 11:00:06;;;;;;;8.23;6.93;;;21.00;98.90;;;;;;5110018;28;20465;-40
2021/09/06 11:02:32;;;;;;;8.23;6.97;;;21.10;98.80;;;;;;5110575;28;20054;-39
2021/09/06 11:04:58;;;;;;;6.80;6.10;;;21.10;98.70;;;;;;5109279;28;20108;-41
2021/09/06 11:07:23;;;;;;;8.07;6.68;;;21.10;98.70;;;;;;5110006;28;20040;-39
2021/09/06 11:09:49;;;;;;;7.50;6.70;;;21.10;98.70;;;;;;5110069;28;20042;-42
2021/09/06 11:12:14;;;;;;;7.88;6.88;;;21.20;98.70;;;;;;5109547;28;20031;-42
2021/09/06 11:14:41;;;;;;;8.93;7.18;;;21.20;98.30;;;;;;5109328;28;20072;-40
2021/09/06 11:17:26;;;;;;;7.70;6.60;;;21.30;98.30;;;;;;5110063;28;20485;-40
2021/09/06 11:19:56;;;;;;;9.68;7.05;;;21.40;98.20;;;;;;5109166;28;20015;-39
2021/09/06 11:22:23;;;;;;;7.65;6.70;;;21.40;98.20;;;;;;5109873;28;20030;-41
2021/09/06 11:24:55;;;;;;;7.25;6.45;;;21.40;98.10;;;;;;5109979;28;20114;-38
2021/09/06 11:27:46;;;;;;;8.85;6.95;;;21.40;98.20;;;;;;5109072;28;20035;-41
2021/09/06 11:30:23;;;;;;;8.10;7.03;;;21.40;97.80;;;;;;5105575;28;20084;-42
2021/09/06 11:32:50;;;;;;;7.40;6.32;;;21.50;97.80;;;;;;5108414;28;20016;-37
2021/09/06 11:35:17;;;;;;;7.40;6.60;;;21.50;97.80;;;;;;5110390;28;20152;-42
2021/09/06 11:37:43;;;;;;;6.90;6.25;;;21.50;97.80;;;;;;5109510;28;20019;-39
2021/09/06 11:40:09;;;;;;;9.00;7.30;;;21.50;97.70;;;;;;5109383;28;20026;-39
2021/09/06 11:42:35;;;;;;;7.35;6.60;;;21.60;97.70;;;;;;5110113;28;20016;-42
2021/09/06 11:45:03;;;;;;;8.38;6.45;;;21.60;97.80;;;;;;5109674;28;20274;-42
2021/09/06 11:47:29;;;;;;;9.38;6.97;;;21.70;97.60;;;;;;5109056;28;20376;-42
2021/09/06 11:49:57;;;;;;;7.60;6.82;;;21.80;97.50;;;;;;5109790;28;20024;-37
2021/09/06 11:52:37;;;;;;;7.53;6.70;;;21.80;97.30;;;;;;5098688;28;20035;-39
2021/09/06 11:55:10;;;;;;;9.00;6.20;;;21.90;97.20;;;;;;5093948;28;20036;-43
2021/09/06 11:57:35;;;;;;;7.43;6.60;;;22.00;97.20;;;;;;5113408;28;20035;-38
2021/09/06 12:00:03;;;;;;;8.48;7.30;;;22.10;97.10;;;;;;5113794;28;20024;-38
2021/09/06 12:02:28;;;;;;;9.07;6.75;;;22.10;96.80;;;;;;5112396;28;20386;-39
2021/09/06 12:05:14;;;;;;;8.20;6.35;;;22.20;96.70;;;;;;5113085;28;20466;-40
2021/09/06 12:07:47;;;;;;;7.35;6.65;;;22.30;96.60;;;;;;5113003;28;20873;-39
2021/09/06 12:10:27;;;;;;;7.65;6.25;;;22.30;96.40;;;;;;5113734;28;20030;-42
2021/09/06 12:13:00;;;;;;;7.50;6.32;;;22.40;96.20;;;;;;5112589;28;20046;-40
2021/09/06 12:15:27;;;;;;;6.93;5.88;;;22.50;96.20;;;;;;5107222;28;20395;-42
2021/09/06 12:18:11;;;;;;;7.95;7.05;;;22.60;96.00;;;;;;5095047;28;20031;-43
2021/09/06 12:20:41;;;;;;;7.63;6.28;;;22.70;95.60;;;;;;5113005;28;20035;-36
2021/09/06 12:23:09;;;;;;;6.68;6.03;;;22.80;95.50;;;;;;5112641;28;20020;-36
2021/09/06 12:25:36;;;;;;;6.68;5.97;;;22.90;95.40;;;;;;5113214;28;20043;-38
2021/09/06 12:28:16;;;;;;;7.20;6.50;;;22.90;95.30;;;;;;5112449;28;20047;-38
2021/09/06 12:30:43;;;;;;;8.73;6.70;;;23.00;94.90;;;;;;5106709;28;20112;-39